Time,TemperatureF,DewpointF,PressureIn,WindDirection,WindDirectionDegrees,WindSpeedMPH,WindSpeedGustMPH,Humidity,HourlyPrecipIn,Conditions,Clouds,dailyrainin,SoftwareType,DateUTC
2013-08-21 00:01:00,57.7,40.2,29.90,SW,231,8.3,8.3,52,0.00,,,0.00,VWS V14.01,2013-08-21 07:01:00,
2013-08-21 00:06:00,57.7,40.2,29.90,SSE,160,2.7,3.1,52,0.00,,,0.00,VWS V14.01,2013-08-21 07:06:00,
2013-08-21 00:11:00,57.7,40.2,29.90,SW,222,4.9,5.4,52,0.00,,,0.00,VWS V14.01,2013-08-21 07:11:00,
2013-08-21 00:16:00,57.6,40.6,29.90,SW,226,4.9,4.9,53,0.00,,,0.00,VWS V14.01,2013-08-21 07:16:00,
2013-08-21 00:21:00,57.7,40.7,29.90,SSW,209,2.7,5.4,53,0.00,,,0.00,VWS V14.01,2013-08-21 07:21:00,
2013-08-21 00:26:00,57.7,41.2,29.90,SW,217,4.0,8.1,54,0.00,,,0.00,VWS V14.01,2013-08-21 07:26:00,
2013-08-21 00:31:00,57.7,41.2,29.90,SSW,213,3.1,6.3,54,0.00,,,0.00,VWS V14.01,2013-08-21 07:31:00,
2013-08-21 00:36:00,57.7,41.2,29.90,WSW,255,2.7,5.8,54,0.00,,,0.00,VWS V14.01,2013-08-21 07:36:00,
2013-08-21 00:41:00,57.7,41.7,29.90,SW,215,3.6,5.4,55,0.00,,,0.00,VWS V14.01,2013-08-21 07:41:00,
2013-08-21 00:46:00,57.7,41.7,29.90,SW,215,4.0,5.4,55,0.00,,,0.00,VWS V14.01,2013-08-21 07:46:00,
2013-08-21 00:51:00,57.6,41.5,29.87,WSW,238,3.6,5.4,55,0.00,,,0.00,VWS V14.01,2013-08-21 07:51:00,
2013-08-21 00:56:00,57.6,42.0,29.87,SSW,207,2.7,4.9,56,0.00,,,0.00,VWS V14.01,2013-08-21 07:56:00,
2013-08-21 01:01:00,57.6,42.0,29.87,SW,220,4.0,4.9,56,0.00,,,0.00,VWS V14.01,2013-08-21 08:01:00,
2013-08-21 01:06:00,57.7,42.2,29.90,WSW,253,5.8,6.3,56,0.00,,,0.00,VWS V14.01,2013-08-21 08:06:00,
2013-08-21 01:11:00,57.7,42.6,29.90,WNW,298,7.6,7.6,57,0.00,,,0.00,VWS V14.01,2013-08-21 08:11:00,
2013-08-21 01:16:00,57.7,43.1,29.90,SW,231,4.9,6.3,58,0.00,,,0.00,VWS V14.01,2013-08-21 08:16:00,
2013-08-21 01:21:00,57.7,43.1,29.90,SW,221,4.9,4.9,58,0.00,,,0.00,VWS V14.01,2013-08-21 08:21:00,
2013-08-21 01:26:00,57.7,43.5,29.90,SSW,210,5.4,5.4,59,0.00,,,0.00,VWS V14.01,2013-08-21 08:26:00,
2013-08-21 01:31:00,57.7,44.0,29.90,West,267,7.2,7.2,60,0.00,,,0.00,VWS V14.01,2013-08-21 08:31:00,
2013-08-21 01:36:00,57.9,44.1,29.87,South,190,3.6,4.0,60,0.00,,,0.00,VWS V14.01,2013-08-21 08:36:00,
2013-08-21 01:41:00,57.9,44.6,29.87,SW,232,3.1,5.8,61,0.00,,,0.00,VWS V14.01,2013-08-21 08:41:00,
2013-08-21 01:46:00,57.9,44.6,29.87,SSW,212,4.0,4.0,61,0.00,,,0.00,VWS V14.01,2013-08-21 08:46:00,
2013-08-21 01:51:00,57.9,45.0,29.90,SW,220,2.7,7.6,62,0.00,,,0.00,VWS V14.01,2013-08-21 08:51:00,
2013-08-21 01:56:00,57.9,45.0,29.90,South,183,4.0,4.9,62,0.00,,,0.00,VWS V14.01,2013-08-21 08:56:00,
2013-08-21 02:01:00,57.9,45.4,29.90,WSW,249,2.7,5.4,63,0.00,,,0.00,VWS V14.01,2013-08-21 09:01:00,
2013-08-21 02:06:00,57.9,45.4,29.90,SW,227,3.6,5.4,63,0.00,,,0.00,VWS V14.01,2013-08-21 09:06:00,
2013-08-21 02:11:00,57.9,45.8,29.90,WSW,239,3.1,4.0,64,0.00,,,0.00,VWS V14.01,2013-08-21 09:11:00,
2013-08-21 02:16:00,57.9,45.8,29.90,SSW,203,5.4,6.3,64,0.00,,,0.00,VWS V14.01,2013-08-21 09:16:00,
2013-08-21 02:21:00,57.9,45.8,29.90,SW,217,4.9,5.8,64,0.00,,,0.00,VWS V14.01,2013-08-21 09:21:00,
2013-08-21 02:26:00,57.9,46.2,29.90,SSW,203,6.3,6.3,65,0.00,,,0.00,VWS V14.01,2013-08-21 09:26:00,
2013-08-21 02:31:00,57.9,46.2,29.90,South,191,5.4,5.8,65,0.00,,,0.00,VWS V14.01,2013-08-21 09:31:00,
2013-08-21 02:36:00,57.9,46.2,29.87,SSW,203,3.6,4.0,65,0.00,,,0.00,VWS V14.01,2013-08-21 09:36:00,
2013-08-21 02:41:00,58.1,46.8,29.87,SW,216,3.6,3.6,66,0.00,,,0.00,VWS V14.01,2013-08-21 09:41:00,
2013-08-21 02:46:00,57.9,46.6,29.87,SSW,206,4.0,5.8,66,0.00,,,0.00,VWS V14.01,2013-08-21 09:46:00,
2013-08-21 02:52:00,57.9,46.6,29.87,SSW,192,5.8,5.8,66,0.00,,,0.00,VWS V14.01,2013-08-21 09:52:00,
2013-08-21 02:56:00,57.9,46.6,29.87,SW,217,6.3,6.3,66,0.00,,,0.00,VWS V14.01,2013-08-21 09:56:00,
2013-08-21 03:02:00,57.9,46.6,29.87,WSW,249,4.9,4.9,66,0.00,,,0.00,VWS V14.01,2013-08-21 10:02:00,
2013-08-21 03:06:00,57.9,46.6,29.87,SW,214,5.4,5.4,66,0.00,,,0.00,VWS V14.01,2013-08-21 10:06:00,
2013-08-21 03:11:00,57.9,46.6,29.87,SW,226,3.1,4.9,66,0.00,,,0.00,VWS V14.01,2013-08-21 10:11:00,
2013-08-21 03:16:00,57.9,47.0,29.87,SW,235,4.0,4.9,67,0.00,,,0.00,VWS V14.01,2013-08-21 10:16:00,
2013-08-21 03:22:00,57.9,47.0,29.87,SSW,211,4.9,5.4,67,0.00,,,0.00,VWS V14.01,2013-08-21 10:22:00,
2013-08-21 03:27:00,57.9,47.0,29.87,South,188,3.6,4.9,67,0.00,,,0.00,VWS V14.01,2013-08-21 10:27:00,
2013-08-21 03:32:00,57.9,47.0,29.87,SSW,201,5.4,5.4,67,0.00,,,0.00,VWS V14.01,2013-08-21 10:32:00,
2013-08-21 03:37:00,57.9,47.0,29.87,South,189,3.1,4.9,67,0.00,,,0.00,VWS V14.01,2013-08-21 10:37:00,
2013-08-21 03:42:00,57.9,47.0,29.87,SW,236,5.8,6.3,67,0.00,,,0.00,VWS V14.01,2013-08-21 10:42:00,
2013-08-21 03:47:00,57.9,47.0,29.87,WSW,252,6.3,6.3,67,0.00,,,0.00,VWS V14.01,2013-08-21 10:47:00,
2013-08-21 03:52:00,57.9,47.0,29.87,SSW,203,3.6,6.3,67,0.00,,,0.00,VWS V14.01,2013-08-21 10:52:00,
2013-08-21 03:57:00,57.9,47.4,29.87,SW,215,3.1,6.3,68,0.00,,,0.00,VWS V14.01,2013-08-21 10:57:00,
2013-08-21 04:02:00,57.9,47.4,29.87,SW,227,5.4,6.7,68,0.00,,,0.00,VWS V14.01,2013-08-21 11:02:00,
2013-08-21 04:07:00,57.9,47.4,29.87,SSW,196,3.6,5.8,68,0.00,,,0.00,VWS V14.01,2013-08-21 11:07:00,
2013-08-21 04:12:00,57.9,47.4,29.87,WSW,248,6.3,6.3,68,0.00,,,0.00,VWS V14.01,2013-08-21 11:12:00,
2013-08-21 04:17:00,57.9,47.4,29.87,SW,234,3.6,5.4,68,0.00,,,0.00,VWS V14.01,2013-08-21 11:17:00,
2013-08-21 04:22:00,57.9,47.4,29.87,SW,225,2.7,5.4,68,0.00,,,0.00,VWS V14.01,2013-08-21 11:22:00,
2013-08-21 04:26:00,58.1,47.6,29.87,WSW,241,5.4,6.7,68,0.00,,,0.00,VWS V14.01,2013-08-21 11:26:00,
2013-08-21 04:31:00,58.1,47.6,29.87,SW,218,5.8,8.3,68,0.00,,,0.00,VWS V14.01,2013-08-21 11:31:00,
2013-08-21 04:36:00,57.9,47.4,29.87,SSW,193,3.1,6.3,68,0.00,,,0.00,VWS V14.01,2013-08-21 11:36:00,
2013-08-21 04:41:00,57.9,47.4,29.87,SSW,204,3.1,4.9,68,0.00,,,0.00,VWS V14.01,2013-08-21 11:41:00,
2013-08-21 04:46:00,57.9,47.4,29.87,SSW,200,7.6,7.6,68,0.00,,,0.00,VWS V14.01,2013-08-21 11:46:00,
2013-08-21 04:51:00,57.9,47.4,29.87,SW,224,5.8,6.3,68,0.00,,,0.00,VWS V14.01,2013-08-21 11:51:00,
2013-08-21 04:56:00,57.7,47.3,29.87,SSW,196,3.1,5.4,68,0.00,,,0.00,VWS V14.01,2013-08-21 11:56:00,
2013-08-21 05:01:00,57.7,47.3,29.87,SW,218,3.6,4.9,68,0.00,,,0.00,VWS V14.01,2013-08-21 12:01:00,
2013-08-21 05:06:00,57.6,46.7,29.87,SW,225,3.6,5.8,67,0.00,,,0.00,VWS V14.01,2013-08-21 12:06:00,
2013-08-21 05:11:00,57.6,46.7,29.87,West,266,5.4,6.3,67,0.00,,,0.00,VWS V14.01,2013-08-21 12:11:00,
2013-08-21 05:16:00,57.7,46.9,29.87,SW,229,3.1,4.0,67,0.00,,,0.00,VWS V14.01,2013-08-21 12:16:00,
2013-08-21 05:21:00,57.7,46.9,29.87,SW,230,4.9,4.9,67,0.00,,,0.00,VWS V14.01,2013-08-21 12:21:00,
2013-08-21 05:26:00,57.6,46.7,29.87,SSW,199,5.8,7.6,67,0.00,,,0.00,VWS V14.01,2013-08-21 12:26:00,
2013-08-21 05:31:00,57.6,46.7,29.87,West,261,5.4,5.4,67,0.00,,,0.00,VWS V14.01,2013-08-21 12:31:00,
2013-08-21 05:36:00,57.6,46.7,29.87,SSW,195,4.9,5.8,67,0.00,,,0.00,VWS V14.01,2013-08-21 12:36:00,
2013-08-21 05:41:00,57.6,46.3,29.87,SSW,213,6.3,6.3,66,0.00,,,0.00,VWS V14.01,2013-08-21 12:41:00,
2013-08-21 05:47:00,57.6,46.3,29.87,WSW,240,2.2,5.8,66,0.00,,,0.00,VWS V14.01,2013-08-21 12:47:00,
2013-08-21 05:52:00,57.6,45.9,29.87,SW,226,5.4,5.8,65,0.00,,,0.00,VWS V14.01,2013-08-21 12:52:00,
2013-08-21 05:57:00,57.6,45.9,29.87,South,189,5.8,6.3,65,0.00,,,0.00,VWS V14.01,2013-08-21 12:57:00,
2013-08-21 06:02:00,57.6,45.5,29.87,SW,223,4.0,5.8,64,0.00,,,0.00,VWS V14.01,2013-08-21 13:02:00,
2013-08-21 06:07:00,57.6,45.5,29.87,SW,219,6.3,6.3,64,0.00,,,0.00,VWS V14.01,2013-08-21 13:07:00,
2013-08-21 06:12:00,57.6,45.1,29.87,SSW,212,7.6,7.6,63,0.00,,,0.00,VWS V14.01,2013-08-21 13:12:00,
2013-08-21 06:17:00,57.6,45.1,29.87,SW,217,3.1,5.4,63,0.00,,,0.00,VWS V14.01,2013-08-21 13:17:00,
2013-08-21 06:22:00,57.6,44.7,29.90,SW,220,3.1,5.4,62,0.00,,,0.00,VWS V14.01,2013-08-21 13:22:00,
2013-08-21 06:27:00,57.6,44.7,29.90,WSW,256,5.8,5.8,62,0.00,,,0.00,VWS V14.01,2013-08-21 13:27:00,
2013-08-21 06:32:00,57.6,44.7,29.90,SW,227,4.0,4.0,62,0.00,,,0.00,VWS V14.01,2013-08-21 13:32:00,
2013-08-21 06:37:00,57.6,44.2,29.90,WSW,245,5.4,5.4,61,0.00,,,0.00,VWS V14.01,2013-08-21 13:37:00,
2013-08-21 06:42:00,57.7,44.4,29.90,SW,235,3.1,5.8,61,0.00,,,0.00,VWS V14.01,2013-08-21 13:42:00,
2013-08-21 06:47:00,57.7,44.4,29.90,SSW,205,6.3,6.3,61,0.00,,,0.00,VWS V14.01,2013-08-21 13:47:00,
2013-08-21 06:52:00,57.7,44.0,29.90,SSW,195,5.4,6.3,60,0.00,,,0.00,VWS V14.01,2013-08-21 13:52:00,
2013-08-21 06:57:00,57.7,44.0,29.90,South,191,4.9,5.8,60,0.00,,,0.00,VWS V14.01,2013-08-21 13:57:00,
2013-08-21 07:02:00,57.7,44.0,29.90,SW,219,3.6,3.6,60,0.00,,,0.00,VWS V14.01,2013-08-21 14:02:00,
2013-08-21 07:07:00,57.7,43.5,29.93,SSW,212,5.8,5.8,59,0.00,,,0.00,VWS V14.01,2013-08-21 14:07:00,
2013-08-21 07:12:00,57.7,43.1,29.93,SSW,213,6.3,6.3,58,0.00,,,0.00,VWS V14.01,2013-08-21 14:12:00,
2013-08-21 07:17:00,57.7,43.1,29.93,SW,232,4.5,4.5,58,0.00,,,0.00,VWS V14.01,2013-08-21 14:17:00,
2013-08-21 07:22:00,57.7,42.6,29.93,West,267,3.1,5.4,57,0.00,,,0.00,VWS V14.01,2013-08-21 14:22:00,
2013-08-21 07:27:00,57.7,42.6,29.93,SSE,163,5.8,5.8,57,0.00,,,0.00,VWS V14.01,2013-08-21 14:27:00,
2013-08-21 07:32:00,57.6,41.5,29.93,SSW,205,6.3,8.3,55,0.00,,,0.00,VWS V14.01,2013-08-21 14:32:00,
2013-08-21 07:37:00,57.6,41.5,29.93,WSW,257,6.3,6.3,55,0.00,,,0.00,VWS V14.01,2013-08-21 14:37:00,
2013-08-21 07:42:00,57.6,41.1,29.93,SSW,197,6.3,6.3,54,0.00,,,0.00,VWS V14.01,2013-08-21 14:42:00,
2013-08-21 07:47:00,57.6,41.1,29.93,WSW,245,2.7,8.7,54,0.00,,,0.00,VWS V14.01,2013-08-21 14:47:00,
2013-08-21 07:52:00,57.6,40.6,29.93,SSW,212,5.8,5.8,53,0.00,,,0.00,VWS V14.01,2013-08-21 14:52:00,
2013-08-21 07:57:00,57.6,40.6,29.93,South,188,5.4,5.4,53,0.00,,,0.00,VWS V14.01,2013-08-21 14:57:00,
2013-08-21 08:02:00,57.6,40.1,29.93,SW,219,3.6,7.6,52,0.00,,,0.00,VWS V14.01,2013-08-21 15:02:00,
2013-08-21 08:07:00,57.4,39.4,29.93,SW,226,5.4,5.4,51,0.00,,,0.00,VWS V14.01,2013-08-21 15:07:00,
2013-08-21 08:12:00,57.4,38.9,29.93,SSW,213,6.3,7.6,50,0.00,,,0.00,VWS V14.01,2013-08-21 15:12:00,
2013-08-21 08:17:00,57.4,38.4,29.93,SW,227,6.3,6.3,49,0.00,,,0.00,VWS V14.01,2013-08-21 15:17:00,
2013-08-21 08:22:00,57.6,38.6,29.93,West,260,7.6,7.6,49,0.00,,,0.00,VWS V14.01,2013-08-21 15:22:00,
2013-08-21 08:27:00,57.6,38.6,29.93,SSW,202,4.0,4.0,49,0.00,,,0.00,VWS V14.01,2013-08-21 15:27:00,
2013-08-21 08:32:00,57.6,38.6,29.93,SSW,211,3.1,3.1,49,0.00,,,0.00,VWS V14.01,2013-08-21 15:32:00,
2013-08-21 08:37:00,57.7,38.2,29.93,SW,229,5.4,5.8,48,0.00,,,0.00,VWS V14.01,2013-08-21 15:37:00,
2013-08-21 08:42:00,57.7,38.2,29.93,SW,223,6.3,6.3,48,0.00,,,0.00,VWS V14.01,2013-08-21 15:42:00,
2013-08-21 08:47:00,57.7,38.2,29.93,ESE,123,5.4,5.4,48,0.00,,,0.00,VWS V14.01,2013-08-21 15:47:00,
2013-08-21 08:52:00,57.7,38.2,29.93,SW,218,6.3,6.7,48,0.00,,,0.00,VWS V14.01,2013-08-21 15:52:00,
2013-08-21 08:57:00,57.9,38.4,29.93,SW,221,8.1,8.1,48,0.00,,,0.00,VWS V14.01,2013-08-21 15:57:00,
2013-08-21 09:02:00,57.9,38.4,29.93,South,188,4.0,5.8,48,0.00,,,0.00,VWS V14.01,2013-08-21 16:02:00,
2013-08-21 09:07:00,57.9,38.4,29.93,SSW,198,5.8,5.8,48,0.00,,,0.00,VWS V14.01,2013-08-21 16:07:00,
2013-08-21 09:12:00,57.9,37.8,29.93,WSW,255,5.4,5.4,47,0.00,,,0.00,VWS V14.01,2013-08-21 16:12:00,
2013-08-21 09:17:00,58.1,38.0,29.93,SW,228,2.7,3.6,47,0.00,,,0.00,VWS V14.01,2013-08-21 16:17:00,
2013-08-21 09:22:00,58.1,37.5,29.93,SSW,194,3.1,3.1,46,0.00,,,0.00,VWS V14.01,2013-08-21 16:22:00,
2013-08-21 09:27:00,58.1,36.9,29.93,SSW,198,5.4,5.4,45,0.00,,,0.00,VWS V14.01,2013-08-21 16:27:00,
2013-08-21 09:32:00,58.1,36.9,29.93,SSW,200,4.0,4.0,45,0.00,,,0.00,VWS V14.01,2013-08-21 16:32:00,
2013-08-21 09:37:00,58.3,37.0,29.93,SW,226,3.6,4.0,45,0.00,,,0.00,VWS V14.01,2013-08-21 16:37:00,
2013-08-21 09:42:00,58.3,37.0,29.93,West,275,4.9,6.7,45,0.00,,,0.00,VWS V14.01,2013-08-21 16:42:00,
2013-08-21 09:47:00,58.5,37.2,29.93,West,260,4.0,5.4,45,0.00,,,0.00,VWS V14.01,2013-08-21 16:47:00,
2013-08-21 09:52:00,58.3,36.5,29.93,SSW,208,3.6,6.3,44,0.00,,,0.00,VWS V14.01,2013-08-21 16:52:00,
2013-08-21 09:57:00,58.3,35.9,29.93,SW,228,5.4,5.4,43,0.00,,,0.00,VWS V14.01,2013-08-21 16:57:00,
2013-08-21 10:02:00,58.3,35.3,29.93,SSW,211,3.1,3.1,42,0.00,,,0.00,VWS V14.01,2013-08-21 17:02:00,
2013-08-21 10:07:00,58.3,35.3,29.93,SW,214,4.0,4.0,42,0.00,,,0.00,VWS V14.01,2013-08-21 17:07:00,
2013-08-21 10:12:00,58.3,35.9,29.93,SSW,210,5.8,5.8,43,0.00,,,0.00,VWS V14.01,2013-08-21 17:12:00,
2013-08-21 10:17:00,58.5,36.1,29.93,SSW,209,3.6,3.6,43,0.00,,,0.00,VWS V14.01,2013-08-21 17:17:00,
2013-08-21 10:22:00,58.5,36.1,29.93,SW,222,3.1,3.6,43,0.00,,,0.00,VWS V14.01,2013-08-21 17:22:00,
2013-08-21 10:27:00,58.6,36.2,29.93,WSW,253,5.4,5.4,43,0.00,,,0.00,VWS V14.01,2013-08-21 17:27:00,
2013-08-21 10:32:00,58.6,35.6,29.93,South,170,6.3,6.3,42,0.00,,,0.00,VWS V14.01,2013-08-21 17:32:00,
2013-08-21 10:37:00,58.8,35.2,29.93,SW,225,2.7,3.1,41,0.00,,,0.00,VWS V14.01,2013-08-21 17:37:00,
2013-08-21 10:42:00,58.8,35.2,29.93,WSW,250,5.4,5.4,41,0.00,,,0.00,VWS V14.01,2013-08-21 17:42:00,
2013-08-21 10:47:00,59.2,34.9,29.93,WSW,252,5.4,5.4,40,0.00,,,0.00,VWS V14.01,2013-08-21 17:47:00,
2013-08-21 10:52:00,59.4,34.4,29.93,SSW,197,3.6,5.8,39,0.00,,,0.00,VWS V14.01,2013-08-21 17:52:00,
2013-08-21 10:57:00,59.5,33.9,29.93,SSW,209,6.7,6.7,38,0.00,,,0.00,VWS V14.01,2013-08-21 17:57:00,
2013-08-21 11:02:00,59.5,33.3,29.93,WSW,252,0.0,0.0,37,0.00,,,0.00,VWS V14.01,2013-08-21 18:02:00,
2013-08-21 11:07:00,59.7,33.4,29.93,SSW,205,4.9,4.9,37,0.00,,,0.00,VWS V14.01,2013-08-21 18:07:00,
2013-08-21 11:12:00,59.9,32.9,29.93,SSW,192,4.0,5.8,36,0.00,,,0.00,VWS V14.01,2013-08-21 18:12:00,
2013-08-21 11:17:00,60.1,33.1,29.93,SW,221,5.4,7.6,36,0.00,,,0.00,VWS V14.01,2013-08-21 18:17:00,
2013-08-21 11:22:00,60.6,32.8,29.93,WSW,240,4.9,6.3,35,0.00,,,0.00,VWS V14.01,2013-08-21 18:22:00,
2013-08-21 11:27:00,61.0,32.4,29.93,SSW,210,4.0,5.4,34,0.00,,,0.00,VWS V14.01,2013-08-21 18:27:00,
2013-08-21 11:32:00,61.3,32.8,29.93,SW,222,5.8,5.8,34,0.00,,,0.00,VWS V14.01,2013-08-21 18:32:00,
2013-08-21 11:37:00,61.5,31.4,29.93,SW,231,3.1,4.9,32,0.00,,,0.00,VWS V14.01,2013-08-21 18:37:00,
2013-08-21 11:42:00,61.9,30.9,29.93,SSE,163,0.0,4.9,31,0.00,,,0.00,VWS V14.01,2013-08-21 18:42:00,
2013-08-21 11:47:00,62.2,29.6,29.93,SSW,198,5.4,5.8,29,0.00,,,0.00,VWS V14.01,2013-08-21 18:47:00,
2013-08-21 11:52:00,62.4,29.8,29.93,SW,226,3.1,4.9,29,0.00,,,0.00,VWS V14.01,2013-08-21 18:52:00,
2013-08-21 11:57:00,62.8,29.2,29.93,SSW,204,3.6,4.0,28,0.00,,,0.00,VWS V14.01,2013-08-21 18:57:00,
2013-08-21 12:02:00,63.1,28.6,29.93,SW,225,3.6,5.8,27,0.00,,,0.00,VWS V14.01,2013-08-21 19:02:00,
2013-08-21 12:07:00,63.5,28.0,29.93,WSW,246,5.4,5.4,26,0.00,,,0.00,VWS V14.01,2013-08-21 19:07:00,
2013-08-21 12:13:00,63.9,27.4,29.93,West,262,3.6,3.6,25,0.00,,,0.00,VWS V14.01,2013-08-21 19:13:00,
2013-08-21 12:17:00,64.2,26.7,29.93,SW,220,4.0,5.8,24,0.00,,,0.00,VWS V14.01,2013-08-21 19:17:00,
2013-08-21 12:22:00,64.6,26.0,29.93,SW,228,6.3,7.6,23,0.00,,,0.00,VWS V14.01,2013-08-21 19:22:00,
2013-08-21 12:28:00,64.6,26.0,29.93,SSW,203,5.8,6.3,23,0.00,,,0.00,VWS V14.01,2013-08-21 19:28:00,
2013-08-21 12:33:00,65.1,26.4,29.93,SSW,209,5.8,5.8,23,0.00,,,0.00,VWS V14.01,2013-08-21 19:33:00,
2013-08-21 12:37:00,65.5,26.7,29.93,SSW,209,0.0,3.1,23,0.00,,,0.00,VWS V14.01,2013-08-21 19:37:00,
2013-08-21 12:42:00,66.0,27.2,29.93,SSW,205,4.5,4.5,23,0.00,,,0.00,VWS V14.01,2013-08-21 19:42:00,
2013-08-21 12:48:00,66.6,24.3,29.93,West,262,2.7,5.8,20,0.00,,,0.00,VWS V14.01,2013-08-21 19:48:00,
2013-08-21 12:53:00,66.6,20.4,29.93,SW,219,5.8,8.1,17,0.00,,,0.00,VWS V14.01,2013-08-21 19:53:00,
2013-08-21 12:57:00,66.4,20.3,29.93,SW,219,4.0,4.0,17,0.00,,,0.00,VWS V14.01,2013-08-21 19:57:00,
2013-08-21 13:02:00,66.4,20.3,29.93,South,185,3.6,3.6,17,0.00,,,0.00,VWS V14.01,2013-08-21 20:02:00,
2013-08-21 13:08:00,66.7,20.6,29.93,WSW,237,5.4,7.6,17,0.00,,,0.00,VWS V14.01,2013-08-21 20:08:00,
2013-08-21 13:13:00,66.7,20.6,29.93,SW,222,4.9,8.1,17,0.00,,,0.00,VWS V14.01,2013-08-21 20:13:00,
2013-08-21 13:18:00,66.7,17.6,29.93,SW,216,6.3,6.3,15,0.00,,,0.00,VWS V14.01,2013-08-21 20:18:00,
2013-08-21 13:23:00,66.7,17.6,29.93,SSW,213,6.3,8.1,15,0.00,,,0.00,VWS V14.01,2013-08-21 20:23:00,
2013-08-21 13:28:00,66.4,17.4,29.93,SW,220,8.1,8.1,15,0.00,,,0.00,VWS V14.01,2013-08-21 20:28:00,
2013-08-21 13:33:00,66.4,17.4,29.93,SW,225,3.6,8.1,15,0.00,,,0.00,VWS V14.01,2013-08-21 20:33:00,
2013-08-21 13:38:00,66.7,17.6,29.90,South,171,3.1,5.4,15,0.00,,,0.00,VWS V14.01,2013-08-21 20:38:00,
2013-08-21 13:43:00,67.1,17.9,29.90,SSW,209,5.8,6.7,15,0.00,,,0.00,VWS V14.01,2013-08-21 20:43:00,
2013-08-21 13:48:00,67.5,18.2,29.90,South,175,3.6,3.6,15,0.00,,,0.00,VWS V14.01,2013-08-21 20:48:00,
2013-08-21 13:53:00,67.5,18.2,29.90,WSW,246,3.1,6.3,15,0.00,,,0.00,VWS V14.01,2013-08-21 20:53:00,
2013-08-21 13:58:00,67.8,13.4,29.90,WSW,242,6.3,6.3,12,0.00,,,0.00,VWS V14.01,2013-08-21 20:58:00,
2013-08-21 14:03:00,67.6,18.4,29.90,SW,228,4.9,6.3,15,0.00,,,0.00,VWS V14.01,2013-08-21 21:03:00,
2013-08-21 14:08:00,67.5,13.1,29.90,SW,220,5.4,6.3,12,0.00,,,0.00,VWS V14.01,2013-08-21 21:08:00,
2013-08-21 14:13:00,67.8,13.4,29.90,SSW,197,5.4,7.2,12,0.00,,,0.00,VWS V14.01,2013-08-21 21:13:00,
2013-08-21 14:18:00,67.8,13.4,29.90,WSW,245,7.6,7.6,12,0.00,,,0.00,VWS V14.01,2013-08-21 21:18:00,
2013-08-21 14:23:00,67.5,13.1,29.90,SSW,193,6.3,6.3,12,0.00,,,0.00,VWS V14.01,2013-08-21 21:23:00,
2013-08-21 14:28:00,67.6,13.2,29.90,SSW,209,4.0,4.0,12,0.00,,,0.00,VWS V14.01,2013-08-21 21:28:00,
2013-08-21 14:33:00,67.5,13.1,29.90,WSW,238,6.3,6.3,12,0.00,,,0.00,VWS V14.01,2013-08-21 21:33:00,
2013-08-21 14:38:00,67.5,13.1,29.90,SW,214,6.3,6.3,12,0.00,,,0.00,VWS V14.01,2013-08-21 21:38:00,
2013-08-21 14:43:00,67.5,13.1,29.90,South,185,2.7,5.4,12,0.00,,,0.00,VWS V14.01,2013-08-21 21:43:00,
2013-08-21 14:48:00,67.8,13.4,29.90,SW,229,5.4,5.4,12,0.00,,,0.00,VWS V14.01,2013-08-21 21:48:00,
2013-08-21 14:53:00,68.0,13.5,29.90,SW,220,2.7,7.6,12,0.00,,,0.00,VWS V14.01,2013-08-21 21:53:00,
2013-08-21 14:58:00,68.2,13.7,29.90,SSW,200,3.6,5.8,12,0.00,,,0.00,VWS V14.01,2013-08-21 21:58:00,
2013-08-21 15:03:00,67.8,13.4,29.90,SSW,195,4.0,4.9,12,0.00,,,0.00,VWS V14.01,2013-08-21 22:03:00,
2013-08-21 15:08:00,68.2,13.7,29.90,WSW,247,3.6,3.6,12,0.00,,,0.00,VWS V14.01,2013-08-21 22:08:00,
2013-08-21 15:13:00,68.4,13.8,29.90,WNW,287,5.8,5.8,12,0.00,,,0.00,VWS V14.01,2013-08-21 22:13:00,
2013-08-21 15:18:00,68.4,13.8,29.90,West,265,6.3,6.3,12,0.00,,,0.00,VWS V14.01,2013-08-21 22:18:00,
2013-08-21 15:23:00,68.5,13.9,29.87,SW,222,5.4,6.3,12,0.00,,,0.00,VWS V14.01,2013-08-21 22:23:00,
2013-08-21 15:28:00,68.2,13.7,29.87,SSW,203,4.9,7.6,12,0.00,,,0.00,VWS V14.01,2013-08-21 22:28:00,
2013-08-21 15:33:00,67.8,13.4,29.87,SW,220,5.4,6.3,12,0.00,,,0.00,VWS V14.01,2013-08-21 22:33:00,
2013-08-21 15:38:00,68.0,13.5,29.87,South,169,3.1,4.0,12,0.00,,,0.00,VWS V14.01,2013-08-21 22:38:00,
2013-08-21 15:43:00,68.0,13.5,29.87,SW,216,2.7,8.3,12,0.00,,,0.00,VWS V14.01,2013-08-21 22:43:00,
2013-08-21 15:48:00,68.0,13.5,29.87,SW,218,3.6,5.8,12,0.00,,,0.00,VWS V14.01,2013-08-21 22:48:00,
2013-08-21 15:53:00,68.2,13.7,29.87,SW,216,4.0,4.0,12,0.00,,,0.00,VWS V14.01,2013-08-21 22:53:00,
2013-08-21 15:58:00,68.2,13.7,29.87,West,264,7.6,9.6,12,0.00,,,0.00,VWS V14.01,2013-08-21 22:58:00,
2013-08-21 16:03:00,68.0,13.5,29.87,SSW,209,3.6,3.6,12,0.00,,,0.00,VWS V14.01,2013-08-21 23:03:00,
2013-08-21 16:08:00,68.0,13.5,29.87,WSW,251,5.4,5.4,12,0.00,,,0.00,VWS V14.01,2013-08-21 23:08:00,
2013-08-21 16:13:00,67.6,13.2,29.87,SSW,206,7.6,8.1,12,0.00,,,0.00,VWS V14.01,2013-08-21 23:13:00,
2013-08-21 16:18:00,67.1,12.8,29.87,SSW,204,4.9,4.9,12,0.00,,,0.00,VWS V14.01,2013-08-21 23:18:00,
2013-08-21 16:23:00,67.3,18.1,29.87,West,259,3.1,4.9,15,0.00,,,0.00,VWS V14.01,2013-08-21 23:23:00,
2013-08-21 16:28:00,67.3,18.1,29.87,SW,235,4.0,5.8,15,0.00,,,0.00,VWS V14.01,2013-08-21 23:28:00,
2013-08-21 16:33:00,67.5,18.2,29.87,NNW,329,7.6,7.6,15,0.00,,,0.00,VWS V14.01,2013-08-21 23:33:00,
2013-08-21 16:38:00,67.6,18.4,29.87,SSW,206,4.9,4.9,15,0.00,,,0.00,VWS V14.01,2013-08-21 23:38:00,
2013-08-21 16:43:00,67.6,13.2,29.87,WSW,244,4.0,4.0,12,0.00,,,0.00,VWS V14.01,2013-08-21 23:43:00,
2013-08-21 16:48:00,67.8,18.5,29.87,SW,218,3.1,5.4,15,0.00,,,0.00,VWS V14.01,2013-08-21 23:48:00,
2013-08-21 16:53:00,67.8,18.5,29.87,SW,232,5.8,5.8,15,0.00,,,0.00,VWS V14.01,2013-08-21 23:53:00,
2013-08-21 16:58:00,68.0,13.5,29.87,South,184,5.4,6.3,12,0.00,,,0.00,VWS V14.01,2013-08-21 23:58:00,
2013-08-21 17:03:00,67.5,13.1,29.87,WSW,253,7.6,7.6,12,0.00,,,0.00,VWS V14.01,2013-08-22 00:03:00,
2013-08-21 17:08:00,67.1,17.9,29.87,SW,231,6.3,6.3,15,0.00,,,0.00,VWS V14.01,2013-08-22 00:08:00,
2013-08-21 17:13:00,66.7,17.6,29.87,SW,221,6.3,6.3,15,0.00,,,0.00,VWS V14.01,2013-08-22 00:13:00,
2013-08-21 17:18:00,66.9,17.8,29.87,SW,224,7.6,7.6,15,0.00,,,0.00,VWS V14.01,2013-08-22 00:18:00,
2013-08-21 17:23:00,66.9,17.8,29.87,SW,226,3.1,5.8,15,0.00,,,0.00,VWS V14.01,2013-08-22 00:23:00,
2013-08-21 17:28:00,66.9,17.8,29.87,WSW,242,4.0,4.0,15,0.00,,,0.00,VWS V14.01,2013-08-22 00:28:00,
2013-08-21 17:33:00,66.7,17.6,29.87,SW,219,7.6,7.6,15,0.00,,,0.00,VWS V14.01,2013-08-22 00:33:00,
2013-08-21 17:38:00,65.8,21.2,29.87,WSW,243,5.4,5.4,18,0.00,,,0.00,VWS V14.01,2013-08-22 00:38:00,
2013-08-21 17:43:00,65.3,23.2,29.87,SW,226,5.4,8.7,20,0.00,,,0.00,VWS V14.01,2013-08-22 00:43:00,
2013-08-21 17:48:00,64.9,26.3,29.87,SSW,207,7.2,7.2,23,0.00,,,0.00,VWS V14.01,2013-08-22 00:48:00,
2013-08-21 17:53:00,65.1,26.4,29.87,South,172,5.4,5.4,23,0.00,,,0.00,VWS V14.01,2013-08-22 00:53:00,
2013-08-21 17:58:00,65.3,26.6,29.87,SSW,201,6.3,6.3,23,0.00,,,0.00,VWS V14.01,2013-08-22 00:58:00,
2013-08-21 18:03:00,65.3,26.6,29.87,SW,224,5.8,5.8,23,0.00,,,0.00,VWS V14.01,2013-08-22 01:03:00,
2013-08-21 18:08:00,64.8,26.1,29.87,SW,225,8.3,8.3,23,0.00,,,0.00,VWS V14.01,2013-08-22 01:08:00,
2013-08-21 18:13:00,64.0,26.5,29.87,WSW,246,5.4,8.3,24,0.00,,,0.00,VWS V14.01,2013-08-22 01:13:00,
2013-08-21 18:18:00,63.9,26.4,29.87,South,179,5.4,7.6,24,0.00,,,0.00,VWS V14.01,2013-08-22 01:18:00,
2013-08-21 18:23:00,63.5,26.1,29.87,South,176,4.0,4.0,24,0.00,,,0.00,VWS V14.01,2013-08-22 01:23:00,
2013-08-21 18:28:00,63.5,27.1,29.87,SSW,205,5.4,6.7,25,0.00,,,0.00,VWS V14.01,2013-08-22 01:28:00,
2013-08-21 18:33:00,63.3,26.9,29.87,SSW,213,3.6,4.9,25,0.00,,,0.00,VWS V14.01,2013-08-22 01:33:00,
2013-08-21 18:38:00,63.5,27.1,29.87,SSW,212,4.9,6.3,25,0.00,,,0.00,VWS V14.01,2013-08-22 01:38:00,
2013-08-21 18:43:00,63.3,27.9,29.87,SSW,194,5.4,5.8,26,0.00,,,0.00,VWS V14.01,2013-08-22 01:43:00,
2013-08-21 18:48:00,63.1,27.7,29.87,SSW,207,4.0,4.0,26,0.00,,,0.00,VWS V14.01,2013-08-22 01:48:00,
2013-08-21 18:53:00,62.8,27.4,29.87,South,172,6.3,6.3,26,0.00,,,0.00,VWS V14.01,2013-08-22 01:53:00,
2013-08-21 18:58:00,62.4,28.9,29.87,SSW,194,6.3,6.3,28,0.00,,,0.00,VWS V14.01,2013-08-22 01:58:00,
2013-08-21 19:03:00,62.1,29.5,29.87,SSE,154,4.9,4.9,29,0.00,,,0.00,VWS V14.01,2013-08-22 02:03:00,
2013-08-21 19:08:00,61.9,30.1,29.87,SSW,200,5.8,6.3,30,0.00,,,0.00,VWS V14.01,2013-08-22 02:08:00,
2013-08-21 19:13:00,61.7,31.6,29.87,SSW,210,5.4,6.3,32,0.00,,,0.00,VWS V14.01,2013-08-22 02:13:00,
2013-08-21 19:18:00,61.3,31.2,29.87,WSW,253,3.1,4.9,32,0.00,,,0.00,VWS V14.01,2013-08-22 02:18:00,
2013-08-21 19:23:00,61.2,32.6,29.87,SSW,212,3.6,4.0,34,0.00,,,0.00,VWS V14.01,2013-08-22 02:23:00,
2013-08-21 19:28:00,60.8,32.3,29.87,SSW,197,6.3,6.3,34,0.00,,,0.00,VWS V14.01,2013-08-22 02:28:00,
2013-08-21 19:33:00,60.8,33.0,29.87,SW,223,3.1,3.1,35,0.00,,,0.00,VWS V14.01,2013-08-22 02:33:00,
2013-08-21 19:38:00,60.6,32.8,29.87,WSW,254,3.6,3.6,35,0.00,,,0.00,VWS V14.01,2013-08-22 02:38:00,
2013-08-21 19:43:00,60.3,33.2,29.87,SSE,152,4.0,5.4,36,0.00,,,0.00,VWS V14.01,2013-08-22 02:43:00,
2013-08-21 19:48:00,59.9,32.9,29.87,SW,224,4.0,4.0,36,0.00,,,0.00,VWS V14.01,2013-08-22 02:48:00,
2013-08-21 19:53:00,59.7,33.4,29.90,SSW,203,5.4,5.4,37,0.00,,,0.00,VWS V14.01,2013-08-22 02:53:00,
2013-08-21 19:58:00,59.5,33.3,29.90,SSW,195,2.7,3.6,37,0.00,,,0.00,VWS V14.01,2013-08-22 02:58:00,
2013-08-21 20:03:00,59.4,33.8,29.90,SW,225,4.0,4.0,38,0.00,,,0.00,VWS V14.01,2013-08-22 03:03:00,
2013-08-21 20:08:00,59.2,34.3,29.90,SSW,204,6.3,6.3,39,0.00,,,0.00,VWS V14.01,2013-08-22 03:08:00,
2013-08-21 20:13:00,59.2,34.9,29.90,South,172,2.7,5.8,40,0.00,,,0.00,VWS V14.01,2013-08-22 03:13:00,
2013-08-21 20:18:00,59.2,34.9,29.90,South,178,3.1,3.6,40,0.00,,,0.00,VWS V14.01,2013-08-22 03:18:00,
2013-08-21 20:23:00,59.2,34.9,29.90,SW,225,3.1,4.0,40,0.00,,,0.00,VWS V14.01,2013-08-22 03:23:00,
2013-08-21 20:28:00,59.2,35.5,29.90,SSW,197,5.4,5.8,41,0.00,,,0.00,VWS V14.01,2013-08-22 03:28:00,
2013-08-21 20:33:00,59.0,35.3,29.90,South,176,2.7,3.1,41,0.00,,,0.00,VWS V14.01,2013-08-22 03:33:00,
2013-08-21 20:38:00,59.0,35.3,29.87,SW,234,0.0,3.1,41,0.00,,,0.00,VWS V14.01,2013-08-22 03:38:00,
2013-08-21 20:43:00,58.8,35.2,29.87,SW,221,4.0,4.0,41,0.00,,,0.00,VWS V14.01,2013-08-22 03:43:00,
2013-08-21 20:48:00,58.8,35.2,29.87,SSW,194,2.7,3.1,41,0.00,,,0.00,VWS V14.01,2013-08-22 03:48:00,
2013-08-21 20:53:00,58.6,35.0,29.90,SW,217,2.2,3.1,41,0.00,,,0.00,VWS V14.01,2013-08-22 03:53:00,
2013-08-21 20:58:00,58.5,34.9,29.90,SSE,151,2.7,3.1,41,0.00,,,0.00,VWS V14.01,2013-08-22 03:58:00,
2013-08-21 21:01:00,58.5,35.5,29.90,SSE,156,2.7,2.7,42,0.00,,,0.00,VWS V14.01,2013-08-22 04:01:00,
2013-08-21 21:02:00,58.5,35.5,29.90,SE,143,0.0,2.7,42,0.00,,,0.00,VWS V14.01,2013-08-22 04:02:00,
2013-08-21 21:07:00,58.3,35.3,29.90,SSE,164,2.2,2.2,42,0.00,,,0.00,VWS V14.01,2013-08-22 04:07:00,
2013-08-21 21:12:00,58.1,35.2,29.90,SE,146,2.7,2.7,42,0.00,,,0.00,VWS V14.01,2013-08-22 04:12:00,
2013-08-21 21:17:00,58.1,35.2,29.90,SW,230,3.1,3.1,42,0.00,,,0.00,VWS V14.01,2013-08-22 04:17:00,
2013-08-21 21:22:00,58.1,35.7,29.90,SW,216,3.6,4.5,43,0.00,,,0.00,VWS V14.01,2013-08-22 04:22:00,
2013-08-21 21:27:00,58.1,36.3,29.90,South,174,3.1,5.8,44,0.00,,,0.00,VWS V14.01,2013-08-22 04:27:00,
2013-08-21 21:32:00,58.1,36.3,29.90,SSW,200,2.7,4.9,44,0.00,,,0.00,VWS V14.01,2013-08-22 04:32:00,
2013-08-21 21:37:00,58.1,36.3,29.90,SSE,166,2.7,3.6,44,0.00,,,0.00,VWS V14.01,2013-08-22 04:37:00,
2013-08-21 21:42:00,58.1,36.9,29.90,SE,134,0.0,0.0,45,0.00,,,0.00,VWS V14.01,2013-08-22 04:42:00,
2013-08-21 21:47:00,57.9,36.7,29.90,South,179,4.0,4.0,45,0.00,,,0.00,VWS V14.01,2013-08-22 04:47:00,
2013-08-21 21:52:00,57.9,36.7,29.90,SSW,208,2.7,3.1,45,0.00,,,0.00,VWS V14.01,2013-08-22 04:52:00,
2013-08-21 21:57:00,57.9,36.7,29.90,SSW,212,0.0,3.1,45,0.00,,,0.00,VWS V14.01,2013-08-22 04:57:00,
2013-08-21 22:02:00,57.9,36.7,29.90,SSW,212,3.1,4.0,45,0.00,,,0.00,VWS V14.01,2013-08-22 05:02:00,
2013-08-21 22:07:00,57.9,36.7,29.90,SSW,211,5.4,5.4,45,0.00,,,0.00,VWS V14.01,2013-08-22 05:07:00,
2013-08-21 22:12:00,57.9,37.3,29.90,SSW,196,0.0,0.0,46,0.00,,,0.00,VWS V14.01,2013-08-22 05:12:00,
2013-08-21 22:17:00,57.7,37.1,29.90,SSW,211,2.7,2.7,46,0.00,,,0.00,VWS V14.01,2013-08-22 05:17:00,
2013-08-21 22:22:00,57.9,37.3,29.90,SW,215,2.7,4.0,46,0.00,,,0.00,VWS V14.01,2013-08-22 05:22:00,
2013-08-21 22:27:00,57.7,37.1,29.90,SSW,209,3.6,4.0,46,0.00,,,0.00,VWS V14.01,2013-08-22 05:27:00,
2013-08-21 22:32:00,57.7,37.7,29.90,SSW,209,3.6,5.8,47,0.00,,,0.00,VWS V14.01,2013-08-22 05:32:00,
2013-08-21 22:37:00,57.7,37.7,29.90,SW,225,0.0,3.6,47,0.00,,,0.00,VWS V14.01,2013-08-22 05:37:00,
2013-08-21 22:42:00,57.7,37.7,29.90,SSW,211,3.1,3.6,47,0.00,,,0.00,VWS V14.01,2013-08-22 05:42:00,
2013-08-21 22:47:00,57.7,37.7,29.90,SSW,196,3.6,3.6,47,0.00,,,0.00,VWS V14.01,2013-08-22 05:47:00,
2013-08-21 22:52:00,57.9,37.8,29.93,SW,226,4.9,4.9,47,0.00,,,0.00,VWS V14.01,2013-08-22 05:52:00,
2013-08-21 22:57:00,57.9,38.4,29.93,SSW,205,3.1,3.6,48,0.00,,,0.00,VWS V14.01,2013-08-22 05:57:00,
2013-08-21 23:02:00,57.9,38.4,29.93,SW,216,4.0,4.0,48,0.00,,,0.00,VWS V14.01,2013-08-22 06:02:00,
2013-08-21 23:07:00,57.9,38.4,29.93,SW,225,2.7,3.6,48,0.00,,,0.00,VWS V14.01,2013-08-22 06:07:00,
2013-08-21 23:12:00,57.9,38.4,29.93,SSE,156,2.7,3.1,48,0.00,,,0.00,VWS V14.01,2013-08-22 06:12:00,
2013-08-21 23:17:00,57.9,38.4,29.93,SW,222,2.7,4.9,48,0.00,,,0.00,VWS V14.01,2013-08-22 06:17:00,
2013-08-21 23:22:00,57.9,38.4,29.90,SW,223,3.1,3.1,48,0.00,,,0.00,VWS V14.01,2013-08-22 06:22:00,
2013-08-21 23:27:00,57.9,38.4,29.90,SW,226,3.1,4.0,48,0.00,,,0.00,VWS V14.01,2013-08-22 06:27:00,
2013-08-21 23:32:00,57.9,38.4,29.90,SW,233,5.4,5.4,48,0.00,,,0.00,VWS V14.01,2013-08-22 06:32:00,
2013-08-21 23:37:00,57.9,38.4,29.90,SSW,210,2.7,2.7,48,0.00,,,0.00,VWS V14.01,2013-08-22 06:37:00,
2013-08-21 23:42:00,57.7,38.2,29.90,SSW,208,3.6,3.6,48,0.00,,,0.00,VWS V14.01,2013-08-22 06:42:00,
2013-08-21 23:47:00,57.7,38.2,29.90,South,191,3.1,5.4,48,0.00,,,0.00,VWS V14.01,2013-08-22 06:47:00,
2013-08-21 23:52:00,57.7,38.2,29.90,SSW,206,2.7,2.7,48,0.00,,,0.00,VWS V14.01,2013-08-22 06:52:00,
2013-08-21 23:57:00,57.7,38.2,29.90,SSW,211,3.1,4.0,48,0.00,,,0.00,VWS V14.01,2013-08-22 06:57:00,